createdAt,value
2019-04-01T00:00:48.226Z,3.40
2019-04-01T00:03:16.675Z,3.40
2019-04-01T00:05:45.157Z,3.30
2019-04-01T00:08:13.612Z,3.30
2019-04-01T00:10:42.047Z,3.30
2019-04-01T00:13:11.275Z,3.30
2019-04-01T00:15:39.763Z,3.30
2019-04-01T00:18:08.237Z,3.30
2019-04-01T00:20:36.676Z,3.30
2019-04-01T00:23:05.303Z,3.20
2019-04-01T00:25:34.332Z,3.20
2019-04-01T00:28:02.804Z,3.20
2019-04-01T00:30:31.274Z,3.20
2019-04-01T00:33:00.167Z,3.10
2019-04-01T00:35:28.602Z,3.10
2019-04-01T00:37:57.075Z,3.10
2019-04-01T00:40:25.517Z,3.10
2019-04-01T00:42:55.589Z,3.00
2019-04-01T00:45:25.681Z,3.00
2019-04-01T00:47:54.195Z,2.90
2019-04-01T00:50:22.731Z,2.90
2019-04-01T00:52:51.170Z,2.90
2019-04-01T00:55:19.706Z,2.90
2019-04-01T00:57:48.520Z,2.80
2019-04-01T01:00:18.029Z,2.80
2019-04-01T01:02:46.464Z,2.80
2019-04-01T01:05:14.918Z,2.80
2019-04-01T01:07:43.366Z,2.80
2019-04-01T01:10:12.266Z,2.80
2019-04-01T01:12:40.770Z,2.80
2019-04-01T01:15:09.575Z,2.70
2019-04-01T01:17:38.015Z,2.70
2019-04-01T01:20:07.129Z,2.70
2019-04-01T01:22:35.565Z,2.70
2019-04-01T01:25:04.463Z,2.60
2019-04-01T01:27:32.899Z,2.60
2019-04-01T01:30:01.441Z,2.50
2019-04-01T01:32:29.953Z,2.50
2019-04-01T01:34:58.395Z,2.40
2019-04-01T01:37:29.495Z,2.40
2019-04-01T01:39:57.961Z,2.40
2019-04-01T01:42:26.394Z,2.40
2019-04-01T01:44:54.867Z,2.40
2019-04-01T01:47:23.294Z,2.40
2019-04-01T01:49:51.751Z,2.30
2019-04-01T01:52:20.214Z,2.30
2019-04-01T01:54:48.682Z,2.30
2019-04-01T01:57:17.163Z,2.30
2019-04-01T01:59:45.631Z,2.20
2019-04-01T02:02:14.096Z,2.20
2019-04-01T02:04:42.539Z,2.10
2019-04-01T02:07:11.005Z,2.10
2019-04-01T02:09:39.445Z,2.10
2019-04-01T02:12:07.984Z,2.00
2019-04-01T02:14:36.430Z,2.10
2019-04-01T02:17:04.966Z,2.10
2019-04-01T02:19:33.503Z,2.10
2019-04-01T02:22:01.973Z,2.10
2019-04-01T02:24:31.086Z,2.10
2019-04-01T02:26:59.496Z,2.00
2019-04-01T02:29:27.932Z,2.00
2019-04-01T02:31:56.525Z,2.00
2019-04-01T02:34:25.051Z,2.00
2019-04-01T02:36:53.518Z,2.00
2019-04-01T02:39:22.003Z,1.90
2019-04-01T02:41:50.444Z,1.90
2019-04-01T02:44:18.960Z,1.80
2019-04-01T02:46:47.434Z,1.80
2019-04-01T02:49:15.991Z,1.80
2019-04-01T02:51:44.512Z,1.80
2019-04-01T02:54:12.978Z,1.80
2019-04-01T02:56:41.443Z,1.70
2019-04-01T02:59:09.924Z,1.70
2019-04-01T03:01:38.474Z,1.70
2019-04-01T03:04:06.956Z,1.70
2019-04-01T03:06:35.500Z,1.60
2019-04-01T03:09:05.872Z,1.60
2019-04-01T03:11:35.410Z,1.70
2019-04-01T03:14:04.024Z,1.60
2019-04-01T03:16:32.469Z,1.60
2019-04-01T03:19:00.944Z,1.60
2019-04-01T03:21:29.417Z,1.50
2019-04-01T03:23:57.965Z,1.60
2019-04-01T03:26:26.515Z,1.60
2019-04-01T03:28:54.998Z,1.50
2019-04-01T03:31:23.500Z,1.50
2019-04-01T03:33:51.983Z,1.40
2019-04-01T03:36:20.454Z,1.50
2019-04-01T03:38:48.932Z,1.50
2019-04-01T03:41:17.417Z,1.50
2019-04-01T03:43:45.856Z,1.50
2019-04-01T03:46:14.421Z,1.60
2019-04-01T03:48:42.931Z,1.80
2019-04-01T03:51:11.570Z,1.80
2019-04-01T03:53:40.035Z,1.80
2019-04-01T03:56:08.501Z,1.80
2019-04-01T03:58:37.056Z,1.70
2019-04-01T04:01:05.501Z,1.70
2019-04-01T04:03:33.972Z,1.70
2019-04-01T04:06:02.459Z,1.60
2019-04-01T04:08:30.918Z,1.60
2019-04-01T04:10:59.400Z,1.60
2019-04-01T04:13:27.903Z,1.50
2019-04-01T04:15:56.525Z,1.50
2019-04-01T04:18:24.968Z,1.50
2019-04-01T04:20:56.366Z,1.50
2019-04-01T04:23:24.914Z,1.50
2019-04-01T04:25:53.369Z,1.50
2019-04-01T04:28:21.845Z,1.50
2019-04-01T04:30:50.289Z,1.60
2019-04-01T04:33:21.946Z,1.60
2019-04-01T04:35:50.402Z,1.50
2019-04-01T04:38:18.921Z,1.50
2019-04-01T04:40:47.454Z,1.60
2019-04-01T04:43:15.899Z,1.40
2019-04-01T04:45:44.374Z,1.40
2019-04-01T04:48:12.942Z,1.30
2019-04-01T04:50:41.479Z,1.30
2019-04-01T04:53:09.940Z,1.30
2019-04-01T04:55:38.384Z,1.20
2019-04-01T04:58:06.933Z,1.20
2019-04-01T05:00:35.370Z,1.20
2019-04-01T05:03:03.907Z,1.20
2019-04-01T05:05:32.348Z,1.30
2019-04-01T05:08:00.817Z,1.30
2019-04-01T05:10:29.268Z,1.30
2019-04-01T05:12:57.823Z,1.30
2019-04-01T05:15:26.424Z,1.40
2019-04-01T05:17:54.936Z,1.30
2019-04-01T05:20:23.400Z,1.30
2019-04-01T05:22:51.973Z,1.30
2019-04-01T05:25:20.426Z,1.40
2019-04-01T05:27:49.574Z,1.40
2019-04-01T05:30:18.214Z,1.40
2019-04-01T05:32:49.364Z,1.50
2019-04-01T05:35:17.901Z,1.50
2019-04-01T05:37:46.412Z,1.50
2019-04-01T05:40:15.021Z,1.60
2019-04-01T05:42:43.526Z,1.60
2019-04-01T05:45:12.140Z,1.70
2019-04-01T05:47:42.212Z,1.80
2019-04-01T05:50:10.797Z,1.90
2019-04-01T05:52:39.267Z,1.90
2019-04-01T05:55:09.112Z,2.10
2019-04-01T05:57:37.973Z,2.10
2019-04-01T06:00:07.317Z,2.10
2019-04-01T06:02:35.776Z,2.20
2019-04-01T06:05:06.396Z,2.30
2019-04-01T06:07:35.343Z,2.40
2019-04-01T06:10:06.516Z,2.60
2019-04-01T06:12:35.832Z,2.90
2019-04-01T06:15:06.415Z,3.10
2019-04-01T06:17:34.885Z,3.40
2019-04-01T06:20:04.258Z,3.50
2019-04-01T06:22:32.728Z,3.50
2019-04-01T06:25:01.452Z,3.40
2019-04-01T06:27:30.276Z,3.60
2019-04-01T06:29:59.452Z,3.60
2019-04-01T06:32:28.086Z,3.90
2019-04-01T06:34:56.922Z,4.10
2019-04-01T06:37:25.525Z,4.20
2019-04-01T06:39:53.987Z,4.20
2019-04-01T06:42:22.526Z,4.30
2019-04-01T06:44:51.000Z,4.60
2019-04-01T06:47:19.539Z,4.80
2019-04-01T06:49:48.058Z,5.10
2019-04-01T06:52:16.581Z,5.00
2019-04-01T06:54:45.098Z,4.90
2019-04-01T06:57:13.567Z,5.10
2019-04-01T06:59:42.002Z,4.80
2019-04-01T07:02:10.462Z,4.90
2019-04-01T07:04:39.417Z,4.70
2019-04-01T07:07:18.907Z,5.00
2019-04-01T07:09:38.492Z,5.30
2019-04-01T07:12:06.928Z,5.70
2019-04-01T07:14:36.128Z,6.00
2019-04-01T07:17:04.631Z,6.10
2019-04-01T07:19:33.380Z,5.70
2019-04-01T07:22:01.821Z,6.00
2019-04-01T07:24:30.419Z,6.20
2019-04-01T07:26:58.931Z,6.20
2019-04-01T07:29:27.395Z,6.00
2019-04-01T07:31:55.827Z,6.00
2019-04-01T07:34:24.748Z,6.50
2019-04-01T07:36:53.288Z,6.40
2019-04-01T07:39:22.606Z,6.60
2019-04-01T07:41:51.126Z,6.30
2019-04-01T07:44:19.590Z,6.70
2019-04-01T07:46:48.386Z,7.10
2019-04-01T07:49:16.850Z,7.30
2019-04-01T07:51:45.445Z,7.40
2019-04-01T07:54:14.265Z,7.10
2019-04-01T07:56:42.836Z,7.40
2019-04-01T07:59:11.303Z,7.50
2019-04-01T08:01:39.914Z,7.60
2019-04-01T08:04:08.439Z,7.70
2019-04-01T08:06:36.935Z,7.30
2019-04-01T08:09:07.253Z,7.70
2019-04-01T08:11:35.859Z,7.90
2019-04-01T08:14:04.704Z,8.00
2019-04-01T08:16:33.167Z,8.20
2019-04-01T08:19:01.644Z,8.50
2019-04-01T08:21:30.158Z,8.60
2019-04-01T08:23:58.690Z,8.60
2019-04-01T08:26:27.220Z,8.70
2019-04-01T08:28:55.677Z,8.70
2019-04-01T08:31:24.631Z,9.10
2019-04-01T08:33:53.140Z,8.80
2019-04-01T08:36:21.622Z,9.00
2019-04-01T08:38:50.233Z,9.20
2019-04-01T08:41:18.751Z,9.20
2019-04-01T08:43:47.282Z,9.10
2019-04-01T08:46:15.722Z,9.30
2019-04-01T08:48:44.229Z,9.00
2019-04-01T08:51:12.772Z,9.40
2019-04-01T08:53:41.215Z,9.40
2019-04-01T08:56:09.756Z,9.40
2019-04-01T08:58:38.496Z,9.80
2019-04-01T09:01:07.007Z,9.70
2019-04-01T09:03:35.466Z,9.70
2019-04-01T09:06:04.126Z,9.40
2019-04-01T09:08:34.463Z,9.70
2019-04-01T09:11:03.486Z,10.40
2019-04-01T09:13:32.019Z,9.90
2019-04-01T09:16:00.630Z,10.00
2019-04-01T09:18:29.075Z,9.60
2019-04-01T09:20:57.545Z,9.30
2019-04-01T09:23:25.978Z,9.70
2019-04-01T09:25:54.446Z,9.70
2019-04-01T09:28:22.896Z,9.40
2019-04-01T09:30:51.365Z,9.50
2019-04-01T09:33:20.171Z,9.70
2019-04-01T09:35:48.641Z,9.70
2019-04-01T09:38:17.614Z,9.70
2019-04-01T09:40:46.186Z,9.60
2019-04-01T09:43:14.645Z,9.60
2019-04-01T09:45:43.233Z,9.80
2019-04-01T09:48:11.781Z,10.40
2019-04-01T09:50:40.372Z,10.40
2019-04-01T09:53:08.859Z,9.90
2019-04-01T09:55:37.307Z,10.20
2019-04-01T09:58:05.780Z,10.10
2019-04-01T10:00:34.291Z,10.40
2019-04-01T10:03:02.765Z,10.10
2019-04-01T10:05:31.217Z,10.30
2019-04-01T10:07:59.663Z,10.40
2019-04-01T10:10:28.134Z,10.80
2019-04-01T10:12:56.591Z,10.70
2019-04-01T10:15:25.209Z,10.90
2019-04-01T10:17:54.072Z,10.90
2019-04-01T10:20:22.647Z,11.10
2019-04-01T10:22:51.127Z,11.10
2019-04-01T10:25:19.589Z,11.10
2019-04-01T10:27:48.119Z,11.60
2019-04-01T10:30:17.506Z,11.50
2019-04-01T10:32:45.963Z,11.50
2019-04-01T10:35:14.878Z,11.60
2019-04-01T10:37:43.323Z,11.10
2019-04-01T10:40:12.138Z,11.00
2019-04-01T10:42:40.642Z,11.10
2019-04-01T10:45:10.259Z,11.20
2019-04-01T10:47:38.810Z,11.50
2019-04-01T10:50:08.246Z,11.50
2019-04-01T10:52:36.888Z,10.60
2019-04-01T10:55:06.665Z,10.60
2019-04-01T10:57:35.276Z,11.40
2019-04-01T11:00:06.366Z,11.40
2019-04-01T11:02:34.870Z,10.60
2019-04-01T11:05:04.468Z,11.60
2019-04-01T11:07:32.982Z,10.80
2019-04-01T11:10:01.450Z,11.30
2019-04-01T11:12:29.924Z,11.40
2019-04-01T11:14:58.371Z,11.80
2019-04-01T11:17:26.932Z,11.90
2019-04-01T11:19:55.483Z,11.40
2019-04-01T11:22:27.250Z,11.60
2019-04-01T11:24:55.715Z,11.70
2019-04-01T11:27:24.265Z,11.60
2019-04-01T11:29:52.783Z,11.70
2019-04-01T11:32:21.536Z,12.00
2019-04-01T11:34:50.038Z,10.90
2019-04-01T11:37:18.578Z,11.30
2019-04-01T11:39:47.098Z,11.60
2019-04-01T11:42:15.751Z,11.50
2019-04-01T11:44:44.277Z,11.60
2019-04-01T11:47:12.872Z,12.00
2019-04-01T11:49:41.384Z,11.80
2019-04-01T11:52:09.959Z,11.80
2019-04-01T11:54:38.546Z,11.50
2019-04-01T11:57:07.314Z,11.30
2019-04-01T11:59:35.851Z,12.00
2019-04-01T12:02:04.462Z,11.70
2019-04-01T12:04:33.007Z,11.50
2019-04-01T12:07:02.153Z,11.60
2019-04-01T12:09:30.880Z,11.50
2019-04-01T12:11:59.417Z,11.50
2019-04-01T12:14:28.555Z,11.90
2019-04-01T12:16:57.020Z,11.70
2019-04-01T12:19:25.470Z,11.70
2019-04-01T12:21:53.939Z,12.20
2019-04-01T12:24:22.417Z,12.10
2019-04-01T12:26:50.860Z,11.80
2019-04-01T12:29:19.408Z,12.20
2019-04-01T12:31:47.854Z,11.90
2019-04-01T12:34:17.559Z,12.00
2019-04-01T12:36:46.175Z,12.20
2019-04-01T12:39:14.643Z,12.20
2019-04-01T12:41:43.187Z,12.50
2019-04-01T12:44:11.724Z,12.60
2019-04-01T12:46:42.249Z,12.50
2019-04-01T12:49:10.755Z,12.40
2019-04-01T12:51:39.245Z,12.60
2019-04-01T12:54:07.687Z,12.60
2019-04-01T12:56:36.201Z,12.80
2019-04-01T12:59:04.814Z,12.60
2019-04-01T13:01:33.265Z,12.70
2019-04-01T13:04:04.184Z,12.30
2019-04-01T13:06:31.924Z,12.20
2019-04-01T13:09:00.370Z,11.80
2019-04-01T13:11:28.860Z,11.80
2019-04-01T13:13:57.430Z,12.50
2019-04-01T13:16:25.935Z,12.20
2019-04-01T13:18:54.410Z,12.10
2019-04-01T13:21:22.851Z,12.20
2019-04-01T13:23:51.335Z,12.50
2019-04-01T13:26:19.812Z,12.80
2019-04-01T13:28:48.352Z,13.20
2019-04-01T13:31:16.895Z,13.40
2019-04-01T13:33:45.331Z,12.70
2019-04-01T13:36:13.894Z,13.00
2019-04-01T13:38:43.304Z,12.50
2019-04-01T13:41:13.224Z,12.90
2019-04-01T13:43:42.039Z,13.30
2019-04-01T13:46:10.512Z,13.00
2019-04-01T13:48:39.059Z,12.90
2019-04-01T13:51:07.546Z,13.30
2019-04-01T13:53:36.008Z,13.00
2019-04-01T13:56:04.510Z,12.60
2019-04-01T13:58:32.982Z,13.00
2019-04-01T14:01:01.547Z,12.70
2019-04-01T14:03:30.019Z,12.80
2019-04-01T14:05:58.528Z,13.20
2019-04-01T14:08:27.000Z,12.70
2019-04-01T14:10:55.448Z,12.60
2019-04-01T14:13:23.923Z,12.90
2019-04-01T14:15:52.371Z,12.80
2019-04-01T14:18:20.857Z,13.00
2019-04-01T14:20:49.332Z,13.10
2019-04-01T14:23:18.302Z,12.80
2019-04-01T14:25:47.147Z,12.90
2019-04-01T14:28:15.595Z,12.80
2019-04-01T14:30:44.069Z,12.90
2019-04-01T14:33:12.551Z,12.70
2019-04-01T14:35:41.041Z,12.80
2019-04-01T14:38:09.487Z,12.60
2019-04-01T14:40:37.955Z,12.80
2019-04-01T14:43:06.396Z,12.80
2019-04-01T14:45:35.475Z,12.60
2019-04-01T14:48:04.259Z,12.70
2019-04-01T14:50:32.734Z,12.60
2019-04-01T14:53:01.248Z,12.60
2019-04-01T14:55:31.024Z,12.60
2019-04-01T14:58:00.421Z,12.60
2019-04-01T15:00:29.142Z,12.50
2019-04-01T15:02:57.682Z,12.40
2019-04-01T15:05:26.263Z,12.60
2019-04-01T15:07:54.735Z,12.80
2019-04-01T15:10:23.229Z,12.90
2019-04-01T15:13:04.411Z,12.70
2019-04-01T15:15:22.368Z,12.60
2019-04-01T15:17:50.843Z,12.50
2019-04-01T15:20:20.225Z,12.60
2019-04-01T15:22:48.696Z,12.50
2019-04-01T15:25:17.166Z,12.70
2019-04-01T15:27:45.603Z,12.70
2019-04-01T15:30:15.623Z,12.80
2019-04-01T15:32:44.140Z,12.90
2019-04-01T15:35:12.893Z,12.70
2019-04-01T15:37:41.351Z,12.70
2019-04-01T15:40:10.218Z,12.80
2019-04-01T15:42:38.679Z,12.90
2019-04-01T15:45:07.783Z,12.70
2019-04-01T15:47:36.241Z,12.90
2019-04-01T15:50:06.447Z,12.40
2019-04-01T15:52:34.977Z,12.50
2019-04-01T15:55:04.598Z,12.60
2019-04-01T15:57:33.081Z,12.60
2019-04-01T16:00:03.283Z,12.60
2019-04-01T16:02:31.897Z,12.80
2019-04-01T16:05:00.378Z,12.70
2019-04-01T16:07:28.992Z,12.70
2019-04-01T16:09:57.783Z,12.50
2019-04-01T16:12:26.256Z,12.50
2019-04-01T16:14:54.731Z,12.60
2019-04-01T16:17:23.209Z,12.70
2019-04-01T16:19:52.335Z,12.70
2019-04-01T16:22:21.918Z,12.60
2019-04-01T16:24:50.542Z,12.70
2019-04-01T16:27:18.979Z,12.80
2019-04-01T16:29:47.458Z,12.70
2019-04-01T16:32:15.977Z,12.40
2019-04-01T16:34:44.472Z,12.40
2019-04-01T16:37:12.963Z,12.30
2019-04-01T16:39:41.511Z,12.20
2019-04-01T16:42:09.971Z,12.20
2019-04-01T16:44:38.592Z,12.00
2019-04-01T16:47:07.043Z,12.10
2019-04-01T16:49:36.316Z,12.00
2019-04-01T16:52:05.285Z,11.90
2019-04-01T16:54:33.904Z,12.00
2019-04-01T16:57:02.375Z,12.00
2019-04-01T16:59:30.858Z,11.90
2019-04-01T17:01:59.306Z,11.80
2019-04-01T17:04:27.960Z,11.80
2019-04-01T17:06:56.467Z,11.70
2019-04-01T17:09:25.097Z,11.80
2019-04-01T17:11:54.429Z,11.70
2019-04-01T17:14:24.277Z,11.60
2019-04-01T17:16:53.046Z,11.60
2019-04-01T17:19:21.489Z,11.50
2019-04-01T17:21:50.036Z,11.50
2019-04-01T17:24:18.498Z,11.50
2019-04-01T17:26:58.323Z,11.30
2019-04-01T17:29:26.767Z,11.30
2019-04-01T17:31:55.216Z,11.30
2019-04-01T17:34:23.693Z,11.20
2019-04-01T17:36:52.163Z,11.20
2019-04-01T17:39:20.623Z,11.20
2019-04-01T17:41:49.157Z,11.00
2019-04-01T17:44:17.677Z,11.10
2019-04-01T17:46:46.220Z,11.00
2019-04-01T17:49:14.734Z,10.90
2019-04-01T17:51:43.206Z,10.80
2019-04-01T17:54:11.652Z,10.80
2019-04-01T17:56:40.179Z,10.70
2019-04-01T17:59:08.644Z,10.70
2019-04-01T18:01:37.295Z,10.60
2019-04-01T18:04:06.722Z,10.50
2019-04-01T18:06:35.233Z,10.50
2019-04-01T18:09:05.799Z,10.40
2019-04-01T18:11:34.295Z,10.30
2019-04-01T18:14:03.074Z,10.30
2019-04-01T18:16:31.599Z,10.20
2019-04-01T18:19:00.135Z,10.20
2019-04-01T18:21:28.606Z,10.10
2019-04-01T18:23:57.075Z,10.00
2019-04-01T18:26:25.519Z,10.00
2019-04-01T18:28:54.067Z,10.00
2019-04-01T18:31:22.513Z,9.90
2019-04-01T18:33:56.412Z,9.80
2019-04-01T18:36:21.158Z,9.80
2019-04-01T18:38:49.712Z,9.70
2019-04-01T18:41:18.180Z,9.70
2019-04-01T18:43:46.617Z,9.60
2019-04-01T18:46:15.090Z,9.60
2019-04-01T18:48:43.525Z,9.50
2019-04-01T18:51:12.259Z,9.50
2019-04-01T18:53:40.782Z,9.40
2019-04-01T18:56:09.251Z,9.30
2019-04-01T18:58:37.711Z,9.30
2019-04-01T19:01:06.239Z,9.30
2019-04-01T19:03:34.722Z,9.20
2019-04-01T19:06:03.294Z,9.10
2019-04-01T19:08:33.145Z,9.10
2019-04-01T19:11:02.737Z,9.00
2019-04-01T19:13:31.411Z,9.00
2019-04-01T19:16:00.992Z,8.90
2019-04-01T19:18:30.123Z,8.90
2019-04-01T19:21:04.384Z,8.80
2019-04-01T19:23:28.773Z,8.70
2019-04-01T19:25:57.214Z,8.70
2019-04-01T19:28:25.683Z,8.60
2019-04-01T19:30:54.131Z,8.60
2019-04-01T19:33:22.590Z,8.50
2019-04-01T19:35:51.632Z,8.50
2019-04-01T19:38:21.462Z,8.40
2019-04-01T19:40:50.123Z,8.30
2019-04-01T19:43:18.589Z,8.30
2019-04-01T19:45:50.456Z,8.30
2019-04-01T19:48:17.322Z,8.20
2019-04-01T19:50:46.132Z,8.20
2019-04-01T19:53:33.940Z,8.10
2019-04-01T19:56:03.164Z,8.00
2019-04-01T19:58:32.038Z,8.00
2019-04-01T20:01:00.648Z,7.90
2019-04-01T20:03:29.163Z,7.80
2019-04-01T20:05:57.630Z,7.80
2019-04-01T20:08:26.085Z,7.70
2019-04-01T20:10:54.572Z,7.70
2019-04-01T20:13:23.018Z,7.60
2019-04-01T20:15:51.466Z,7.60
2019-04-01T20:18:20.065Z,7.60
2019-04-01T20:20:48.528Z,7.50
2019-04-01T20:23:16.966Z,7.50
2019-04-01T20:25:48.691Z,7.40
2019-04-01T20:28:15.727Z,7.40
2019-04-01T20:30:44.536Z,7.40
2019-04-01T20:33:18.222Z,7.30
2019-04-01T20:35:43.249Z,7.30
2019-04-01T20:38:11.711Z,7.30
2019-04-01T20:40:40.151Z,7.20
2019-04-01T20:43:08.619Z,7.20
2019-04-01T20:45:37.122Z,7.10
2019-04-01T20:48:05.588Z,7.10
2019-04-01T20:50:34.051Z,7.10
2019-04-01T20:53:02.489Z,7.00
2019-04-01T20:55:31.010Z,7.00
2019-04-01T20:57:59.541Z,7.00
2019-04-01T21:00:27.988Z,7.00
2019-04-01T21:02:56.455Z,6.90
2019-04-01T21:05:24.914Z,6.90
2019-04-01T21:07:53.343Z,6.90
2019-04-01T21:10:21.878Z,6.80
2019-04-01T21:12:51.209Z,6.70
2019-04-01T21:15:19.811Z,6.70
2019-04-01T21:17:48.308Z,6.70
2019-04-01T21:20:16.847Z,6.70
2019-04-01T21:22:45.286Z,6.70
2019-04-01T21:25:13.887Z,6.60
2019-04-01T21:27:42.333Z,6.50
2019-04-01T21:30:11.626Z,6.50
2019-04-01T21:32:40.072Z,6.50
2019-04-01T21:35:09.453Z,6.50
2019-04-01T21:37:38.189Z,6.50
2019-04-01T21:40:08.540Z,6.50
2019-04-01T21:42:37.052Z,6.50
2019-04-01T21:45:07.414Z,6.50
2019-04-01T21:47:35.852Z,6.50
2019-04-01T21:50:06.390Z,6.40
2019-04-01T21:52:35.477Z,6.40
2019-04-01T21:55:08.047Z,6.40
2019-04-01T21:57:35.859Z,6.40
2019-04-01T22:00:07.373Z,6.30
2019-04-01T22:02:36.439Z,6.20
2019-04-01T22:05:07.022Z,6.20
2019-04-01T22:07:35.479Z,6.20
2019-04-01T22:10:06.064Z,6.20
2019-04-01T22:12:34.678Z,6.10
2019-04-01T22:15:26.668Z,6.10
2019-04-01T22:17:55.136Z,6.10
2019-04-01T22:20:23.570Z,6.10
2019-04-01T22:22:52.008Z,6.00
2019-04-01T22:25:20.485Z,6.00
2019-04-01T22:27:48.918Z,5.90
2019-04-01T22:30:18.030Z,5.90
2019-04-01T22:32:46.485Z,5.80
2019-04-01T22:35:14.924Z,6.00
2019-04-01T22:37:43.399Z,6.00
2019-04-01T22:40:11.975Z,5.90
2019-04-01T22:42:40.506Z,5.80
2019-04-01T22:45:08.998Z,5.80
2019-04-01T22:47:37.489Z,5.70
2019-04-01T22:50:07.044Z,5.70
2019-04-01T22:52:35.821Z,5.70
2019-04-01T22:55:05.454Z,5.70
2019-04-01T22:57:33.939Z,5.80
2019-04-01T23:00:02.424Z,5.80
2019-04-01T23:02:30.883Z,5.70
2019-04-01T23:04:59.369Z,5.80
2019-04-01T23:07:27.810Z,5.90
2019-04-01T23:09:57.929Z,6.00
2019-04-01T23:12:26.594Z,6.00
2019-04-01T23:14:55.078Z,6.10
2019-04-01T23:17:23.517Z,6.20
2019-04-01T23:19:52.005Z,6.20
2019-04-01T23:22:20.465Z,6.20
2019-04-01T23:24:48.950Z,6.10
2019-04-01T23:27:17.488Z,6.10
2019-04-01T23:29:45.990Z,6.00
2019-04-01T23:32:16.118Z,6.00
2019-04-01T23:34:44.840Z,6.20
2019-04-01T23:37:13.295Z,6.20
2019-04-01T23:39:42.036Z,6.30
2019-04-01T23:42:10.543Z,6.30
2019-04-01T23:44:38.974Z,6.40
2019-04-01T23:47:07.509Z,6.50
2019-04-01T23:49:35.983Z,6.50
2019-04-01T23:52:05.469Z,6.50
2019-04-01T23:54:34.404Z,6.40
2019-04-01T23:57:02.880Z,6.20
2019-04-01T23:59:31.447Z,6.20
